West Bangor, New York
Current Conditions -  °F | °C
As of 3:53 AM on Monday 24 Nov 2014 (Local Time) from KMSS Reporting Station
Light Rain Light Rain  
Wind Chill: 50°   Ceiling: 8500
Heat Index: 50°   Visibility: 8mi
Dew Point: 42°   Wind: 7mph
Humidity: 74%   Direction: 110°ESE
Pressure: 29.64"   Gusts: NA
Location:  44.7973°N, 74.4173°W
Report Text: KMSS 240853Z AUTO 11006KT 8SM -RA OVC085 10/06 A2964 RMK AO2 RAB17 SLP039 P0001 60001 T01000056 56056
Loading
Personal Weather Stations






























Interactive Weather Map New forecast layout! Learn more

10-Day Weather Forecast

Advertisements
Track Severe Weather on mobile